Current Conditions
Mostly Scattered
Clouds



Pressure
1017.92 (mb) - 30.06 (inHG)
Visibility

6.2 (miles) - 10.0 (km)
   Temperature
22  °C
72°F
13  °C
Dewpoint
57  %
 Humidity
   Wind Speed
10  mph
9  kts
16  km/h
4.5  m/s
   Wind Direction
 280°
Due West
   Airport Data
EGTK
Location Oxford (Kidlington) Airport 16 mi (26km)
Metar :EGTK 231450Z 28009KT 260V320 9999 SCT037 22/13 Q1018
Thu 23rd September 14:50 pm
   Raw Metar Info
Raw METAR is the most common format in the world for the transmission of observational weather data. It is highly standardized through the International Civil Aviation Organization (ICAO), which allows it to be understood throughout most of the world.
   API Info
Data Provided by
https://www.checkwx.com/weather/
   © Info
CSS/SVG/PHP scripts were developed by weather34.com for use in the weather34 template © 2015-2021

Guide Info provided by Metar-Wikipedia